sensor_id;sensor_type;location;lat;lon;timestamp;P1;durP1;ratioP1;P2;durP2;ratioP2
46561;SDS011;32289;42.688;23.330;2022-08-01T00:01:15;3.88;;;2.83;;
46561;SDS011;32289;42.688;23.330;2022-08-01T00:04:56;4.72;;;2.95;;
46561;SDS011;32289;42.688;23.330;2022-08-01T00:08:37;5.43;;;3.47;;
46561;SDS011;32289;42.688;23.330;2022-08-01T00:12:18;5.32;;;2.35;;
46561;SDS011;32289;42.688;23.330;2022-08-01T00:15:58;2.75;;;2.20;;
46561;SDS011;32289;42.688;23.330;2022-08-01T00:19:39;6.30;;;2.50;;
46561;SDS011;32289;42.688;23.330;2022-08-01T00:23:20;3.20;;;2.40;;
46561;SDS011;32289;42.688;23.330;2022-08-01T00:27:00;6.18;;;3.17;;
46561;SDS011;32289;42.688;23.330;2022-08-01T00:30:41;6.78;;;4.05;;
46561;SDS011;32289;42.688;23.330;2022-08-01T00:34:22;5.03;;;4.07;;
46561;SDS011;32289;42.688;23.330;2022-08-01T00:38:02;4.65;;;3.75;;
46561;SDS011;32289;42.688;23.330;2022-08-01T00:41:43;4.72;;;3.63;;
46561;SDS011;32289;42.688;23.330;2022-08-01T00:45:24;5.82;;;3.92;;
46561;SDS011;32289;42.688;23.330;2022-08-01T00:49:06;6.13;;;4.07;;
46561;SDS011;32289;42.688;23.330;2022-08-01T00:52:46;5.90;;;4.40;;
46561;SDS011;32289;42.688;23.330;2022-08-01T00:56:28;6.57;;;3.95;;
46561;SDS011;32289;42.688;23.330;2022-08-01T01:00:09;6.35;;;4.30;;
46561;SDS011;32289;42.688;23.330;2022-08-01T01:03:51;4.82;;;4.28;;
46561;SDS011;32289;42.688;23.330;2022-08-01T01:07:56;4.93;;;3.72;;
46561;SDS011;32289;42.688;23.330;2022-08-01T01:11:38;3.92;;;3.33;;
46561;SDS011;32289;42.688;23.330;2022-08-01T01:15:41;5.68;;;3.88;;
46561;SDS011;32289;42.688;23.330;2022-08-01T01:19:28;4.78;;;4.03;;
46561;SDS011;32289;42.688;23.330;2022-08-01T01:23:21;6.28;;;4.18;;
46561;SDS011;32289;42.688;23.330;2022-08-01T01:27:29;4.60;;;3.80;;
46561;SDS011;32289;42.688;23.330;2022-08-01T01:31:22;5.07;;;3.85;;
46561;SDS011;32289;42.688;23.330;2022-08-01T01:35:06;4.25;;;3.53;;
46561;SDS011;32289;42.688;23.330;2022-08-01T01:38:50;5.15;;;2.90;;
46561;SDS011;32289;42.688;23.330;2022-08-01T01:42:32;5.43;;;3.38;;
46561;SDS011;32289;42.688;23.330;2022-08-01T01:46:15;4.93;;;3.38;;
46561;SDS011;32289;42.688;23.330;2022-08-01T01:49:59;3.80;;;2.83;;
46561;SDS011;32289;42.688;23.330;2022-08-01T01:53:41;3.40;;;2.47;;
46561;SDS011;32289;42.688;23.330;2022-08-01T01:57:23;7.70;;;2.58;;
46561;SDS011;32289;42.688;23.330;2022-08-01T02:01:04;4.63;;;2.38;;
46561;SDS011;32289;42.688;23.330;2022-08-01T02:04:46;3.10;;;2.13;;
46561;SDS011;32289;42.688;23.330;2022-08-01T02:08:29;4.10;;;2.20;;
46561;SDS011;32289;42.688;23.330;2022-08-01T02:12:11;3.22;;;2.03;;
46561;SDS011;32289;42.688;23.330;2022-08-01T02:15:52;3.40;;;2.08;;
46561;SDS011;32289;42.688;23.330;2022-08-01T02:19:33;4.05;;;2.45;;
46561;SDS011;32289;42.688;23.330;2022-08-01T02:23:14;4.10;;;1.90;;
46561;SDS011;32289;42.688;23.330;2022-08-01T02:26:56;6.18;;;1.45;;
46561;SDS011;32289;42.688;23.330;2022-08-01T02:30:42;3.22;;;1.77;;
46561;SDS011;32289;42.688;23.330;2022-08-01T02:34:28;2.85;;;1.70;;
46561;SDS011;32289;42.688;23.330;2022-08-01T02:38:12;2.90;;;1.98;;
46561;SDS011;32289;42.688;23.330;2022-08-01T02:41:55;4.18;;;1.90;;
46561;SDS011;32289;42.688;23.330;2022-08-01T02:45:45;6.53;;;2.17;;
46561;SDS011;32289;42.688;23.330;2022-08-01T02:49:33;3.30;;;2.30;;
46561;SDS011;32289;42.688;23.330;2022-08-01T02:53:18;4.18;;;2.72;;
46561;SDS011;32289;42.688;23.330;2022-08-01T02:57:01;5.60;;;2.45;;
46561;SDS011;32289;42.688;23.330;2022-08-01T03:00:44;7.88;;;3.10;;
46561;SDS011;32289;42.688;23.330;2022-08-01T03:04:25;3.92;;;2.80;;
46561;SDS011;32289;42.688;23.330;2022-08-01T03:08:08;3.92;;;2.70;;
46561;SDS011;32289;42.688;23.330;2022-08-01T03:11:50;3.58;;;2.47;;
46561;SDS011;32289;42.688;23.330;2022-08-01T03:15:32;2.88;;;2.35;;
46561;SDS011;32289;42.688;23.330;2022-08-01T03:19:15;3.97;;;2.63;;
46561;SDS011;32289;42.688;23.330;2022-08-01T03:22:59;4.32;;;2.70;;
46561;SDS011;32289;42.688;23.330;2022-08-01T03:26:44;5.05;;;2.80;;
46561;SDS011;32289;42.688;23.330;2022-08-01T03:30:26;3.50;;;2.70;;
46561;SDS011;32289;42.688;23.330;2022-08-01T03:34:08;3.80;;;2.55;;
46561;SDS011;32289;42.688;23.330;2022-08-01T03:37:50;5.43;;;2.60;;
46561;SDS011;32289;42.688;23.330;2022-08-01T03:41:34;4.63;;;2.50;;
46561;SDS011;32289;42.688;23.330;2022-08-01T03:45:41;3.72;;;2.67;;
46561;SDS011;32289;42.688;23.330;2022-08-01T03:49:25;3.92;;;2.72;;
46561;SDS011;32289;42.688;23.330;2022-08-01T03:53:10;7.57;;;3.15;;
46561;SDS011;32289;42.688;23.330;2022-08-01T03:56:51;7.28;;;3.08;;
46561;SDS011;32289;42.688;23.330;2022-08-01T04:00:32;7.15;;;3.22;;
46561;SDS011;32289;42.688;23.330;2022-08-01T04:04:15;6.05;;;3.25;;
46561;SDS011;32289;42.688;23.330;2022-08-01T04:07:55;5.53;;;3.70;;
46561;SDS011;32289;42.688;23.330;2022-08-01T04:11:36;7.78;;;3.42;;
46561;SDS011;32289;42.688;23.330;2022-08-01T04:15:17;6.05;;;3.72;;
46561;SDS011;32289;42.688;23.330;2022-08-01T04:19:00;6.18;;;4.10;;
46561;SDS011;32289;42.688;23.330;2022-08-01T04:22:41;6.43;;;3.65;;
46561;SDS011;32289;42.688;23.330;2022-08-01T04:26:22;8.10;;;3.65;;
46561;SDS011;32289;42.688;23.330;2022-08-01T04:30:06;15.30;;;4.20;;
46561;SDS011;32289;42.688;23.330;2022-08-01T04:33:48;7.30;;;4.60;;
46561;SDS011;32289;42.688;23.330;2022-08-01T04:37:31;6.15;;;4.13;;
46561;SDS011;32289;42.688;23.330;2022-08-01T04:41:13;10.13;;;4.97;;
46561;SDS011;32289;42.688;23.330;2022-08-01T04:44:55;11.38;;;4.57;;
46561;SDS011;32289;42.688;23.330;2022-08-01T04:48:37;12.45;;;4.75;;
46561;SDS011;32289;42.688;23.330;2022-08-01T04:52:19;10.73;;;4.35;;
46561;SDS011;32289;42.688;23.330;2022-08-01T04:56:03;10.82;;;4.63;;
46561;SDS011;32289;42.688;23.330;2022-08-01T04:59:43;14.07;;;5.22;;
46561;SDS011;32289;42.688;23.330;2022-08-01T05:03:24;11.50;;;4.55;;
46561;SDS011;32289;42.688;23.330;2022-08-01T05:07:05;9.77;;;4.13;;
46561;SDS011;32289;42.688;23.330;2022-08-01T05:10:46;6.28;;;4.20;;
46561;SDS011;32289;42.688;23.330;2022-08-01T05:14:27;9.02;;;4.25;;
46561;SDS011;32289;42.688;23.330;2022-08-01T05:18:11;7.45;;;4.10;;
46561;SDS011;32289;42.688;23.330;2022-08-01T05:21:52;11.75;;;4.00;;
46561;SDS011;32289;42.688;23.330;2022-08-01T05:25:33;7.47;;;4.00;;
46561;SDS011;32289;42.688;23.330;2022-08-01T05:29:13;7.07;;;3.08;;
46561;SDS011;32289;42.688;23.330;2022-08-01T05:32:55;5.47;;;3.60;;
46561;SDS011;32289;42.688;23.330;2022-08-01T05:36:35;7.45;;;2.70;;
46561;SDS011;32289;42.688;23.330;2022-08-01T05:40:17;8.63;;;3.60;;
46561;SDS011;32289;42.688;23.330;2022-08-01T05:43:58;6.95;;;3.13;;
46561;SDS011;32289;42.688;23.330;2022-08-01T05:47:39;9.10;;;3.55;;
46561;SDS011;32289;42.688;23.330;2022-08-01T05:51:19;4.38;;;2.97;;
46561;SDS011;32289;42.688;23.330;2022-08-01T05:55:00;7.82;;;3.95;;
46561;SDS011;32289;42.688;23.330;2022-08-01T05:58:41;4.43;;;2.75;;
46561;SDS011;32289;42.688;23.330;2022-08-01T06:02:21;9.52;;;3.22;;
46561;SDS011;32289;42.688;23.330;2022-08-01T06:06:02;5.43;;;2.65;;
46561;SDS011;32289;42.688;23.330;2022-08-01T06:09:43;8.35;;;2.95;;
46561;SDS011;32289;42.688;23.330;2022-08-01T06:13:24;3.50;;;2.17;;
46561;SDS011;32289;42.688;23.330;2022-08-01T06:17:05;5.88;;;3.50;;
46561;SDS011;32289;42.688;23.330;2022-08-01T06:20:46;7.72;;;3.13;;
46561;SDS011;32289;42.688;23.330;2022-08-01T06:24:27;7.60;;;3.25;;
46561;SDS011;32289;42.688;23.330;2022-08-01T06:28:08;5.78;;;2.97;;
46561;SDS011;32289;42.688;23.330;2022-08-01T06:31:49;6.43;;;2.53;;
46561;SDS011;32289;42.688;23.330;2022-08-01T06:35:29;3.67;;;2.30;;
46561;SDS011;32289;42.688;23.330;2022-08-01T06:39:10;8.60;;;4.47;;
46561;SDS011;32289;42.688;23.330;2022-08-01T06:42:51;6.10;;;2.08;;
46561;SDS011;32289;42.688;23.330;2022-08-01T06:46:32;3.42;;;1.80;;
46561;SDS011;32289;42.688;23.330;2022-08-01T06:50:13;9.57;;;2.13;;
46561;SDS011;32289;42.688;23.330;2022-08-01T06:53:54;5.80;;;1.90;;
46561;SDS011;32289;42.688;23.330;2022-08-01T06:57:35;8.45;;;2.88;;
46561;SDS011;32289;42.688;23.330;2022-08-01T07:01:16;4.47;;;1.98;;
46561;SDS011;32289;42.688;23.330;2022-08-01T07:04:57;3.90;;;2.15;;
46561;SDS011;32289;42.688;23.330;2022-08-01T07:08:40;4.57;;;2.15;;
46561;SDS011;32289;42.688;23.330;2022-08-01T07:12:21;4.22;;;1.95;;
46561;SDS011;32289;42.688;23.330;2022-08-01T07:16:01;3.65;;;2.20;;
46561;SDS011;32289;42.688;23.330;2022-08-01T07:19:42;6.07;;;2.42;;
46561;SDS011;32289;42.688;23.330;2022-08-01T07:23:23;5.28;;;2.65;;
46561;SDS011;32289;42.688;23.330;2022-08-01T07:27:04;5.43;;;2.50;;
46561;SDS011;32289;42.688;23.330;2022-08-01T07:30:44;3.78;;;3.03;;
46561;SDS011;32289;42.688;23.330;2022-08-01T07:34:25;8.30;;;4.85;;
46561;SDS011;32289;42.688;23.330;2022-08-01T07:38:06;5.00;;;1.88;;
46561;SDS011;32289;42.688;23.330;2022-08-01T07:41:47;3.75;;;2.25;;
46561;SDS011;32289;42.688;23.330;2022-08-01T07:45:28;2.40;;;1.70;;
46561;SDS011;32289;42.688;23.330;2022-08-01T07:49:10;4.90;;;3.20;;
46561;SDS011;32289;42.688;23.330;2022-08-01T07:52:50;9.23;;;2.60;;
46561;SDS011;32289;42.688;23.330;2022-08-01T07:56:31;3.28;;;2.75;;
46561;SDS011;32289;42.688;23.330;2022-08-01T08:00:12;5.50;;;2.30;;
46561;SDS011;32289;42.688;23.330;2022-08-01T08:03:53;5.32;;;1.77;;
46561;SDS011;32289;42.688;23.330;2022-08-01T08:07:34;4.65;;;3.00;;
46561;SDS011;32289;42.688;23.330;2022-08-01T08:11:15;2.63;;;2.20;;
46561;SDS011;32289;42.688;23.330;2022-08-01T08:14:56;9.38;;;3.17;;
46561;SDS011;32289;42.688;23.330;2022-08-01T08:18:38;5.15;;;2.30;;
46561;SDS011;32289;42.688;23.330;2022-08-01T08:22:19;5.03;;;2.55;;
46561;SDS011;32289;42.688;23.330;2022-08-01T08:26:00;4.03;;;2.10;;
46561;SDS011;32289;42.688;23.330;2022-08-01T08:29:41;3.90;;;2.70;;
46561;SDS011;32289;42.688;23.330;2022-08-01T08:33:21;3.97;;;2.53;;
46561;SDS011;32289;42.688;23.330;2022-08-01T08:37:02;4.50;;;1.80;;
46561;SDS011;32289;42.688;23.330;2022-08-01T08:40:43;4.88;;;2.85;;
46561;SDS011;32289;42.688;23.330;2022-08-01T08:44:24;4.57;;;2.03;;
46561;SDS011;32289;42.688;23.330;2022-08-01T08:48:05;3.70;;;2.80;;
46561;SDS011;32289;42.688;23.330;2022-08-01T08:51:51;5.25;;;3.08;;
46561;SDS011;32289;42.688;23.330;2022-08-01T08:55:32;3.78;;;2.67;;
46561;SDS011;32289;42.688;23.330;2022-08-01T08:59:13;5.32;;;2.17;;
46561;SDS011;32289;42.688;23.330;2022-08-01T09:02:53;5.15;;;2.35;;
46561;SDS011;32289;42.688;23.330;2022-08-01T09:06:35;3.92;;;2.28;;
46561;SDS011;32289;42.688;23.330;2022-08-01T09:10:16;7.78;;;2.20;;
46561;SDS011;32289;42.688;23.330;2022-08-01T09:14:16;5.28;;;1.83;;
46561;SDS011;32289;42.688;23.330;2022-08-01T09:18:05;2.95;;;1.90;;
46561;SDS011;32289;42.688;23.330;2022-08-01T09:21:57;4.75;;;1.85;;
46561;SDS011;32289;42.688;23.330;2022-08-01T09:25:51;5.68;;;2.10;;
46561;SDS011;32289;42.688;23.330;2022-08-01T09:29:32;6.68;;;2.80;;
46561;SDS011;32289;42.688;23.330;2022-08-01T09:33:13;6.72;;;1.40;;
46561;SDS011;32289;42.688;23.330;2022-08-01T09:36:55;4.18;;;1.73;;
46561;SDS011;32289;42.688;23.330;2022-08-01T09:41:11;4.82;;;1.98;;
46561;SDS011;32289;42.688;23.330;2022-08-01T09:44:47;4.20;;;1.77;;
46561;SDS011;32289;42.688;23.330;2022-08-01T09:48:28;3.63;;;2.30;;
46561;SDS011;32289;42.688;23.330;2022-08-01T09:52:21;5.60;;;1.80;;
46561;SDS011;32289;42.688;23.330;2022-08-01T09:56:13;6.70;;;4.72;;
46561;SDS011;32289;42.688;23.330;2022-08-01T09:59:59;3.80;;;2.28;;
46561;SDS011;32289;42.688;23.330;2022-08-01T10:03:40;3.40;;;2.90;;
46561;SDS011;32289;42.688;23.330;2022-08-01T10:07:21;8.93;;;2.30;;
46561;SDS011;32289;42.688;23.330;2022-08-01T10:11:08;4.88;;;1.67;;
46561;SDS011;32289;42.688;23.330;2022-08-01T10:14:51;5.07;;;1.83;;
46561;SDS011;32289;42.688;23.330;2022-08-01T10:18:34;2.67;;;1.50;;
46561;SDS011;32289;42.688;23.330;2022-08-01T10:22:16;5.03;;;2.83;;
46561;SDS011;32289;42.688;23.330;2022-08-01T10:25:58;7.45;;;2.15;;
46561;SDS011;32289;42.688;23.330;2022-08-01T10:30:13;2.03;;;1.45;;
46561;SDS011;32289;42.688;23.330;2022-08-01T10:33:50;4.22;;;2.05;;
46561;SDS011;32289;42.688;23.330;2022-08-01T10:37:31;2.72;;;1.70;;
46561;SDS011;32289;42.688;23.330;2022-08-01T10:41:14;3.55;;;1.95;;
46561;SDS011;32289;42.688;23.330;2022-08-01T10:44:58;4.57;;;2.15;;
46561;SDS011;32289;42.688;23.330;2022-08-01T10:52:38;4.22;;;2.20;;
46561;SDS011;32289;42.688;23.330;2022-08-01T10:56:19;3.83;;;2.20;;
46561;SDS011;32289;42.688;23.330;2022-08-01T11:00:01;5.32;;;3.15;;
46561;SDS011;32289;42.688;23.330;2022-08-01T11:03:45;3.85;;;2.45;;
46561;SDS011;32289;42.688;23.330;2022-08-01T11:07:49;5.85;;;2.20;;
46561;SDS011;32289;42.688;23.330;2022-08-01T11:11:33;5.47;;;3.78;;
46561;SDS011;32289;42.688;23.330;2022-08-01T11:15:46;2.97;;;1.73;;
46561;SDS011;32289;42.688;23.330;2022-08-01T11:19:26;2.67;;;1.75;;
46561;SDS011;32289;42.688;23.330;2022-08-01T11:23:46;2.25;;;1.23;;
46561;SDS011;32289;42.688;23.330;2022-08-01T11:34:56;3.63;;;1.70;;
46561;SDS011;32289;42.688;23.330;2022-08-01T11:38:37;3.65;;;1.77;;
46561;SDS011;32289;42.688;23.330;2022-08-01T11:42:18;3.00;;;2.08;;
46561;SDS011;32289;42.688;23.330;2022-08-01T11:46:00;3.78;;;1.77;;
46561;SDS011;32289;42.688;23.330;2022-08-01T11:53:27;4.00;;;1.92;;
46561;SDS011;32289;42.688;23.330;2022-08-01T11:57:11;3.67;;;1.60;;
46561;SDS011;32289;42.688;23.330;2022-08-01T12:00:53;3.85;;;2.45;;
46561;SDS011;32289;42.688;23.330;2022-08-01T12:04:47;2.53;;;1.60;;
46561;SDS011;32289;42.688;23.330;2022-08-01T12:08:31;4.15;;;1.60;;
46561;SDS011;32289;42.688;23.330;2022-08-01T12:12:14;5.20;;;1.95;;
46561;SDS011;32289;42.688;23.330;2022-08-01T12:15:59;3.63;;;2.10;;
46561;SDS011;32289;42.688;23.330;2022-08-01T12:19:48;4.83;;;2.27;;
46561;SDS011;32289;42.688;23.330;2022-08-01T12:23:29;4.32;;;2.00;;
46561;SDS011;32289;42.688;23.330;2022-08-01T12:27:10;3.33;;;2.38;;
46561;SDS011;32289;42.688;23.330;2022-08-01T12:31:03;6.68;;;2.63;;
46561;SDS011;32289;42.688;23.330;2022-08-01T12:34:43;2.90;;;2.20;;
46561;SDS011;32289;42.688;23.330;2022-08-01T12:38:24;4.25;;;2.35;;
46561;SDS011;32289;42.688;23.330;2022-08-01T12:42:09;3.22;;;1.95;;
46561;SDS011;32289;42.688;23.330;2022-08-01T12:45:52;2.90;;;2.03;;
46561;SDS011;32289;42.688;23.330;2022-08-01T12:49:36;4.10;;;3.08;;
46561;SDS011;32289;42.688;23.330;2022-08-01T12:53:18;5.85;;;2.67;;
46561;SDS011;32289;42.688;23.330;2022-08-01T12:56:59;5.35;;;4.00;;
46561;SDS011;32289;42.688;23.330;2022-08-01T13:00:40;5.30;;;2.78;;
46561;SDS011;32289;42.688;23.330;2022-08-01T13:04:24;6.20;;;3.33;;
46561;SDS011;32289;42.688;23.330;2022-08-01T13:08:08;5.07;;;2.28;;
46561;SDS011;32289;42.688;23.330;2022-08-01T13:11:51;4.18;;;2.50;;
46561;SDS011;32289;42.688;23.330;2022-08-01T13:15:37;3.95;;;2.30;;
46561;SDS011;32289;42.688;23.330;2022-08-01T13:19:19;4.15;;;2.63;;
46561;SDS011;32289;42.688;23.330;2022-08-01T13:23:10;6.05;;;1.92;;
46561;SDS011;32289;42.688;23.330;2022-08-01T13:26:59;5.93;;;2.22;;
46561;SDS011;32289;42.688;23.330;2022-08-01T13:34:34;2.63;;;1.90;;
46561;SDS011;32289;42.688;23.330;2022-08-01T13:38:15;3.25;;;2.13;;
46561;SDS011;32289;42.688;23.330;2022-08-01T13:41:55;6.72;;;3.70;;
46561;SDS011;32289;42.688;23.330;2022-08-01T13:45:36;2.97;;;2.05;;
46561;SDS011;32289;42.688;23.330;2022-08-01T13:49:18;6.95;;;3.28;;
46561;SDS011;32289;42.688;23.330;2022-08-01T13:52:59;4.30;;;2.33;;
46561;SDS011;32289;42.688;23.330;2022-08-01T13:56:40;4.38;;;2.70;;
46561;SDS011;32289;42.688;23.330;2022-08-01T14:00:21;3.63;;;2.63;;
46561;SDS011;32289;42.688;23.330;2022-08-01T14:04:02;6.65;;;2.60;;
46561;SDS011;32289;42.688;23.330;2022-08-01T14:07:43;4.18;;;2.05;;
46561;SDS011;32289;42.688;23.330;2022-08-01T14:11:24;10.23;;;3.05;;
46561;SDS011;32289;42.688;23.330;2022-08-01T14:15:05;4.72;;;2.53;;
46561;SDS011;32289;42.688;23.330;2022-08-01T14:18:46;2.65;;;1.83;;
46561;SDS011;32289;42.688;23.330;2022-08-01T14:22:27;2.95;;;2.10;;
46561;SDS011;32289;42.688;23.330;2022-08-01T14:26:08;4.85;;;2.22;;
46561;SDS011;32289;42.688;23.330;2022-08-01T14:29:49;3.22;;;2.45;;
46561;SDS011;32289;42.688;23.330;2022-08-01T14:33:30;3.08;;;2.30;;
46561;SDS011;32289;42.688;23.330;2022-08-01T14:37:11;3.42;;;2.22;;
46561;SDS011;32289;42.688;23.330;2022-08-01T14:40:51;4.20;;;3.17;;
46561;SDS011;32289;42.688;23.330;2022-08-01T14:44:33;4.35;;;2.28;;
46561;SDS011;32289;42.688;23.330;2022-08-01T14:48:14;3.60;;;2.00;;
46561;SDS011;32289;42.688;23.330;2022-08-01T14:51:54;4.15;;;2.00;;
46561;SDS011;32289;42.688;23.330;2022-08-01T14:55:35;4.75;;;2.60;;
46561;SDS011;32289;42.688;23.330;2022-08-01T14:59:16;7.05;;;2.78;;
46561;SDS011;32289;42.688;23.330;2022-08-01T15:02:57;3.47;;;2.17;;
46561;SDS011;32289;42.688;23.330;2022-08-01T15:06:38;3.55;;;1.90;;
46561;SDS011;32289;42.688;23.330;2022-08-01T15:10:18;3.25;;;2.25;;
46561;SDS011;32289;42.688;23.330;2022-08-01T15:13:59;3.05;;;2.08;;
46561;SDS011;32289;42.688;23.330;2022-08-01T15:18:04;4.80;;;1.98;;
46561;SDS011;32289;42.688;23.330;2022-08-01T15:21:44;2.83;;;1.90;;
46561;SDS011;32289;42.688;23.330;2022-08-01T15:25:25;3.58;;;1.90;;
46561;SDS011;32289;42.688;23.330;2022-08-01T15:29:06;3.20;;;1.83;;
46561;SDS011;32289;42.688;23.330;2022-08-01T15:32:47;5.47;;;2.00;;
46561;SDS011;32289;42.688;23.330;2022-08-01T15:36:27;3.63;;;1.60;;
46561;SDS011;32289;42.688;23.330;2022-08-01T15:40:08;2.22;;;1.65;;
46561;SDS011;32289;42.688;23.330;2022-08-01T15:43:51;5.40;;;2.20;;
46561;SDS011;32289;42.688;23.330;2022-08-01T15:47:32;2.55;;;1.80;;
46561;SDS011;32289;42.688;23.330;2022-08-01T15:51:12;3.00;;;1.88;;
46561;SDS011;32289;42.688;23.330;2022-08-01T15:54:53;4.22;;;2.00;;
46561;SDS011;32289;42.688;23.330;2022-08-01T15:58:34;3.67;;;1.98;;
46561;SDS011;32289;42.688;23.330;2022-08-01T16:02:17;4.38;;;2.28;;
46561;SDS011;32289;42.688;23.330;2022-08-01T16:05:57;4.63;;;2.25;;
46561;SDS011;32289;42.688;23.330;2022-08-01T16:09:38;2.90;;;1.88;;
46561;SDS011;32289;42.688;23.330;2022-08-01T16:13:19;5.13;;;2.40;;
46561;SDS011;32289;42.688;23.330;2022-08-01T16:16:59;6.53;;;2.60;;
46561;SDS011;32289;42.688;23.330;2022-08-01T16:20:40;6.43;;;2.20;;
46561;SDS011;32289;42.688;23.330;2022-08-01T16:24:22;6.28;;;2.75;;
46561;SDS011;32289;42.688;23.330;2022-08-01T16:28:07;4.53;;;2.22;;
46561;SDS011;32289;42.688;23.330;2022-08-01T16:31:48;6.63;;;3.30;;
46561;SDS011;32289;42.688;23.330;2022-08-01T16:35:29;9.32;;;3.42;;
46561;SDS011;32289;42.688;23.330;2022-08-01T16:39:10;6.78;;;2.15;;
46561;SDS011;32289;42.688;23.330;2022-08-01T16:42:50;3.88;;;1.98;;
46561;SDS011;32289;42.688;23.330;2022-08-01T16:46:31;6.00;;;1.83;;
46561;SDS011;32289;42.688;23.330;2022-08-01T16:50:12;2.40;;;1.75;;
46561;SDS011;32289;42.688;23.330;2022-08-01T16:53:53;2.42;;;1.60;;
46561;SDS011;32289;42.688;23.330;2022-08-01T16:57:34;3.60;;;1.83;;
46561;SDS011;32289;42.688;23.330;2022-08-01T17:01:17;3.65;;;1.90;;
46561;SDS011;32289;42.688;23.330;2022-08-01T17:04:58;2.85;;;1.55;;
46561;SDS011;32289;42.688;23.330;2022-08-01T17:08:39;6.85;;;1.75;;
46561;SDS011;32289;42.688;23.330;2022-08-01T17:12:21;3.55;;;1.30;;
46561;SDS011;32289;42.688;23.330;2022-08-01T17:16:02;5.03;;;1.80;;
46561;SDS011;32289;42.688;23.330;2022-08-01T17:19:45;3.70;;;1.85;;
46561;SDS011;32289;42.688;23.330;2022-08-01T17:23:25;6.25;;;2.08;;
46561;SDS011;32289;42.688;23.330;2022-08-01T17:27:06;3.15;;;1.65;;
46561;SDS011;32289;42.688;23.330;2022-08-01T17:30:47;4.63;;;1.60;;
46561;SDS011;32289;42.688;23.330;2022-08-01T17:34:28;4.38;;;1.77;;
46561;SDS011;32289;42.688;23.330;2022-08-01T17:38:08;10.05;;;2.03;;
46561;SDS011;32289;42.688;23.330;2022-08-01T17:41:49;3.28;;;1.83;;
46561;SDS011;32289;42.688;23.330;2022-08-01T17:45:30;6.75;;;3.58;;
46561;SDS011;32289;42.688;23.330;2022-08-01T17:49:10;8.45;;;3.70;;
46561;SDS011;32289;42.688;23.330;2022-08-01T17:52:51;4.57;;;1.52;;
46561;SDS011;32289;42.688;23.330;2022-08-01T17:56:32;2.78;;;1.73;;
46561;SDS011;32289;42.688;23.330;2022-08-01T18:00:13;4.07;;;2.10;;
46561;SDS011;32289;42.688;23.330;2022-08-01T18:03:54;5.07;;;1.95;;
46561;SDS011;32289;42.688;23.330;2022-08-01T18:07:37;4.85;;;2.92;;
46561;SDS011;32289;42.688;23.330;2022-08-01T18:11:18;5.03;;;2.20;;
46561;SDS011;32289;42.688;23.330;2022-08-01T18:14:58;3.65;;;1.58;;
46561;SDS011;32289;42.688;23.330;2022-08-01T18:18:42;3.75;;;2.05;;
46561;SDS011;32289;42.688;23.330;2022-08-01T18:22:23;5.40;;;1.83;;
46561;SDS011;32289;42.688;23.330;2022-08-01T18:26:04;4.30;;;1.90;;
46561;SDS011;32289;42.688;23.330;2022-08-01T18:29:48;3.55;;;1.92;;
46561;SDS011;32289;42.688;23.330;2022-08-01T18:33:29;4.90;;;1.92;;
46561;SDS011;32289;42.688;23.330;2022-08-01T18:37:10;4.72;;;2.33;;
46561;SDS011;32289;42.688;23.330;2022-08-01T18:40:51;4.13;;;2.33;;
46561;SDS011;32289;42.688;23.330;2022-08-01T18:44:32;3.60;;;2.33;;
46561;SDS011;32289;42.688;23.330;2022-08-01T18:48:13;4.68;;;1.80;;
46561;SDS011;32289;42.688;23.330;2022-08-01T18:51:54;3.28;;;2.30;;
46561;SDS011;32289;42.688;23.330;2022-08-01T18:55:36;5.22;;;2.13;;
46561;SDS011;32289;42.688;23.330;2022-08-01T18:59:17;6.85;;;4.90;;
46561;SDS011;32289;42.688;23.330;2022-08-01T19:02:59;3.50;;;2.17;;
46561;SDS011;32289;42.688;23.330;2022-08-01T19:06:39;5.10;;;2.83;;
46561;SDS011;32289;42.688;23.330;2022-08-01T19:10:20;6.20;;;2.78;;
46561;SDS011;32289;42.688;23.330;2022-08-01T19:14:02;3.80;;;2.17;;
46561;SDS011;32289;42.688;23.330;2022-08-01T19:17:43;4.00;;;2.35;;
46561;SDS011;32289;42.688;23.330;2022-08-01T19:21:24;6.35;;;2.60;;
46561;SDS011;32289;42.688;23.330;2022-08-01T19:25:05;6.55;;;2.58;;
46561;SDS011;32289;42.688;23.330;2022-08-01T19:28:46;6.63;;;2.30;;
46561;SDS011;32289;42.688;23.330;2022-08-01T19:32:30;3.63;;;2.15;;
46561;SDS011;32289;42.688;23.330;2022-08-01T19:36:14;4.95;;;2.72;;
46561;SDS011;32289;42.688;23.330;2022-08-01T19:39:56;6.80;;;2.42;;
46561;SDS011;32289;42.688;23.330;2022-08-01T19:43:38;4.70;;;2.42;;
46561;SDS011;32289;42.688;23.330;2022-08-01T19:47:19;9.23;;;3.35;;
46561;SDS011;32289;42.688;23.330;2022-08-01T19:51:00;5.65;;;2.72;;
46561;SDS011;32289;42.688;23.330;2022-08-01T19:54:44;2.50;;;1.67;;
46561;SDS011;32289;42.688;23.330;2022-08-01T19:58:29;6.18;;;1.65;;
46561;SDS011;32289;42.688;23.330;2022-08-01T20:02:10;3.97;;;2.28;;
46561;SDS011;32289;42.688;23.330;2022-08-01T20:05:55;4.45;;;1.80;;
46561;SDS011;32289;42.688;23.330;2022-08-01T20:09:40;4.53;;;2.25;;
46561;SDS011;32289;42.688;23.330;2022-08-01T20:13:24;5.55;;;2.58;;
46561;SDS011;32289;42.688;23.330;2022-08-01T20:17:05;4.35;;;2.00;;
46561;SDS011;32289;42.688;23.330;2022-08-01T20:20:48;2.88;;;1.52;;
46561;SDS011;32289;42.688;23.330;2022-08-01T20:24:34;6.05;;;1.90;;
46561;SDS011;32289;42.688;23.330;2022-08-01T20:28:21;5.50;;;2.10;;
46561;SDS011;32289;42.688;23.330;2022-08-01T20:32:05;4.18;;;2.20;;
46561;SDS011;32289;42.688;23.330;2022-08-01T20:35:47;5.32;;;1.52;;
46561;SDS011;32289;42.688;23.330;2022-08-01T20:39:31;2.97;;;1.63;;
46561;SDS011;32289;42.688;23.330;2022-08-01T20:43:14;6.03;;;2.30;;
46561;SDS011;32289;42.688;23.330;2022-08-01T20:46:59;4.60;;;1.88;;
46561;SDS011;32289;42.688;23.330;2022-08-01T20:50:42;4.43;;;1.88;;
46561;SDS011;32289;42.688;23.330;2022-08-01T20:54:42;5.60;;;2.28;;
46561;SDS011;32289;42.688;23.330;2022-08-01T20:58:26;3.60;;;1.85;;
46561;SDS011;32289;42.688;23.330;2022-08-01T21:06:28;3.70;;;1.67;;
46561;SDS011;32289;42.688;23.330;2022-08-01T21:10:16;6.32;;;2.08;;
46561;SDS011;32289;42.688;23.330;2022-08-01T21:14:03;5.43;;;2.40;;
46561;SDS011;32289;42.688;23.330;2022-08-01T21:17:51;2.45;;;1.48;;
46561;SDS011;32289;42.688;23.330;2022-08-01T21:22:09;2.83;;;1.48;;
46561;SDS011;32289;42.688;23.330;2022-08-01T21:25:58;2.53;;;1.70;;
46561;SDS011;32289;42.688;23.330;2022-08-01T21:29:43;7.63;;;1.30;;
46561;SDS011;32289;42.688;23.330;2022-08-01T21:33:27;3.15;;;1.88;;
46561;SDS011;32289;42.688;23.330;2022-08-01T21:37:08;2.35;;;1.30;;
46561;SDS011;32289;42.688;23.330;2022-08-01T21:40:49;4.57;;;1.80;;
46561;SDS011;32289;42.688;23.330;2022-08-01T21:44:31;3.45;;;1.90;;
46561;SDS011;32289;42.688;23.330;2022-08-01T21:48:13;3.40;;;1.85;;
46561;SDS011;32289;42.688;23.330;2022-08-01T21:52:14;3.53;;;2.22;;
46561;SDS011;32289;42.688;23.330;2022-08-01T21:56:03;4.93;;;1.92;;
46561;SDS011;32289;42.688;23.330;2022-08-01T21:59:51;8.70;;;1.65;;
46561;SDS011;32289;42.688;23.330;2022-08-01T22:03:47;3.58;;;1.40;;
46561;SDS011;32289;42.688;23.330;2022-08-01T22:07:54;4.20;;;1.80;;
46561;SDS011;32289;42.688;23.330;2022-08-01T22:11:37;2.35;;;1.35;;
46561;SDS011;32289;42.688;23.330;2022-08-01T22:15:22;3.33;;;1.52;;
46561;SDS011;32289;42.688;23.330;2022-08-01T22:19:04;3.55;;;1.33;;
46561;SDS011;32289;42.688;23.330;2022-08-01T22:22:48;3.17;;;1.75;;
46561;SDS011;32289;42.688;23.330;2022-08-01T22:26:30;4.72;;;1.90;;